sensor_id;sensor_type;location;lat;lon;timestamp;P1;durP1;ratioP1;P2;durP2;ratioP2
18651;SDS011;9455;54.302;10.124;2024-03-02T00:00:38;43.57;;;16.17;;
18651;SDS011;9455;54.302;10.124;2024-03-02T00:03:06;45.77;;;16.03;;
18651;SDS011;9455;54.302;10.124;2024-03-02T00:05:34;43.23;;;14.03;;
18651;SDS011;9455;54.302;10.124;2024-03-02T00:08:01;41.27;;;15.40;;
18651;SDS011;9455;54.302;10.124;2024-03-02T00:10:33;43.13;;;17.70;;
18651;SDS011;9455;54.302;10.124;2024-03-02T00:13:04;45.60;;;16.13;;
18651;SDS011;9455;54.302;10.124;2024-03-02T00:15:41;43.87;;;14.50;;
18651;SDS011;9455;54.302;10.124;2024-03-02T00:18:14;40.50;;;15.07;;
18651;SDS011;9455;54.302;10.124;2024-03-02T00:20:44;50.43;;;16.90;;
18651;SDS011;9455;54.302;10.124;2024-03-02T00:23:13;43.67;;;16.60;;
18651;SDS011;9455;54.302;10.124;2024-03-02T00:25:43;53.57;;;19.23;;
18651;SDS011;9455;54.302;10.124;2024-03-02T00:28:13;52.60;;;19.43;;
18651;SDS011;9455;54.302;10.124;2024-03-02T00:30:54;39.73;;;15.57;;
18651;SDS011;9455;54.302;10.124;2024-03-02T00:33:23;42.33;;;14.80;;
18651;SDS011;9455;54.302;10.124;2024-03-02T00:35:53;40.43;;;14.53;;
18651;SDS011;9455;54.302;10.124;2024-03-02T00:38:20;55.10;;;17.10;;
18651;SDS011;9455;54.302;10.124;2024-03-02T00:40:47;51.70;;;16.57;;
18651;SDS011;9455;54.302;10.124;2024-03-02T00:43:21;44.73;;;16.03;;
18651;SDS011;9455;54.302;10.124;2024-03-02T00:46:11;46.67;;;15.73;;
18651;SDS011;9455;54.302;10.124;2024-03-02T00:48:47;47.07;;;15.20;;
18651;SDS011;9455;54.302;10.124;2024-03-02T00:51:17;42.70;;;13.17;;
18651;SDS011;9455;54.302;10.124;2024-03-02T00:53:44;47.03;;;14.73;;
18651;SDS011;9455;54.302;10.124;2024-03-02T00:56:11;43.73;;;14.33;;
18651;SDS011;9455;54.302;10.124;2024-03-02T00:58:38;37.97;;;14.50;;
18651;SDS011;9455;54.302;10.124;2024-03-02T01:01:04;44.60;;;14.70;;
18651;SDS011;9455;54.302;10.124;2024-03-02T01:03:32;47.63;;;15.57;;
18651;SDS011;9455;54.302;10.124;2024-03-02T01:06:00;44.43;;;17.40;;
18651;SDS011;9455;54.302;10.124;2024-03-02T01:08:27;45.23;;;15.10;;
18651;SDS011;9455;54.302;10.124;2024-03-02T01:10:53;50.90;;;16.90;;
18651;SDS011;9455;54.302;10.124;2024-03-02T01:13:21;46.50;;;16.00;;
18651;SDS011;9455;54.302;10.124;2024-03-02T01:15:48;45.53;;;15.47;;
18651;SDS011;9455;54.302;10.124;2024-03-02T01:18:15;46.10;;;16.10;;
18651;SDS011;9455;54.302;10.124;2024-03-02T01:20:41;49.37;;;14.90;;
18651;SDS011;9455;54.302;10.124;2024-03-02T01:23:09;43.70;;;16.27;;
18651;SDS011;9455;54.302;10.124;2024-03-02T01:25:36;46.03;;;16.40;;
18651;SDS011;9455;54.302;10.124;2024-03-02T01:28:03;41.13;;;14.63;;
18651;SDS011;9455;54.302;10.124;2024-03-02T01:30:30;37.23;;;14.20;;
18651;SDS011;9455;54.302;10.124;2024-03-02T01:33:02;39.10;;;15.20;;
18651;SDS011;9455;54.302;10.124;2024-03-02T01:35:30;51.60;;;17.43;;
18651;SDS011;9455;54.302;10.124;2024-03-02T01:37:57;55.37;;;17.40;;
18651;SDS011;9455;54.302;10.124;2024-03-02T01:40:25;41.70;;;16.00;;
18651;SDS011;9455;54.302;10.124;2024-03-02T01:42:52;46.47;;;14.83;;
18651;SDS011;9455;54.302;10.124;2024-03-02T01:45:19;41.57;;;16.07;;
18651;SDS011;9455;54.302;10.124;2024-03-02T01:47:46;45.40;;;14.77;;
18651;SDS011;9455;54.302;10.124;2024-03-02T01:50:13;52.90;;;15.57;;
18651;SDS011;9455;54.302;10.124;2024-03-02T01:52:40;43.10;;;15.47;;
18651;SDS011;9455;54.302;10.124;2024-03-02T01:55:07;37.23;;;15.23;;
18651;SDS011;9455;54.302;10.124;2024-03-02T01:57:36;44.73;;;15.47;;
18651;SDS011;9455;54.302;10.124;2024-03-02T02:00:03;42.07;;;15.47;;
18651;SDS011;9455;54.302;10.124;2024-03-02T02:02:30;40.53;;;15.17;;
18651;SDS011;9455;54.302;10.124;2024-03-02T02:04:57;41.77;;;14.97;;
18651;SDS011;9455;54.302;10.124;2024-03-02T02:07:23;43.23;;;15.00;;
18651;SDS011;9455;54.302;10.124;2024-03-02T02:09:50;36.83;;;14.27;;
18651;SDS011;9455;54.302;10.124;2024-03-02T02:12:17;38.30;;;14.57;;
18651;SDS011;9455;54.302;10.124;2024-03-02T02:14:48;42.80;;;13.90;;
18651;SDS011;9455;54.302;10.124;2024-03-02T02:17:15;41.67;;;16.37;;
18651;SDS011;9455;54.302;10.124;2024-03-02T02:19:42;41.03;;;15.77;;
18651;SDS011;9455;54.302;10.124;2024-03-02T02:22:10;45.13;;;15.23;;
18651;SDS011;9455;54.302;10.124;2024-03-02T02:24:39;43.60;;;15.27;;
18651;SDS011;9455;54.302;10.124;2024-03-02T02:27:06;40.73;;;14.80;;
18651;SDS011;9455;54.302;10.124;2024-03-02T02:29:33;50.17;;;15.50;;
18651;SDS011;9455;54.302;10.124;2024-03-02T02:32:00;43.30;;;15.83;;
18651;SDS011;9455;54.302;10.124;2024-03-02T02:34:26;41.17;;;15.90;;
18651;SDS011;9455;54.302;10.124;2024-03-02T02:36:53;53.83;;;16.73;;
18651;SDS011;9455;54.302;10.124;2024-03-02T02:39:22;47.37;;;17.43;;
18651;SDS011;9455;54.302;10.124;2024-03-02T02:41:48;50.57;;;16.73;;
18651;SDS011;9455;54.302;10.124;2024-03-02T02:44:15;49.40;;;16.90;;
18651;SDS011;9455;54.302;10.124;2024-03-02T02:46:42;40.13;;;14.87;;
18651;SDS011;9455;54.302;10.124;2024-03-02T02:49:08;41.37;;;16.20;;
18651;SDS011;9455;54.302;10.124;2024-03-02T02:51:35;43.73;;;15.17;;
18651;SDS011;9455;54.302;10.124;2024-03-02T02:54:02;61.50;;;17.67;;
18651;SDS011;9455;54.302;10.124;2024-03-02T02:56:30;45.73;;;17.83;;
18651;SDS011;9455;54.302;10.124;2024-03-02T02:58:56;54.60;;;16.53;;
18651;SDS011;9455;54.302;10.124;2024-03-02T03:01:23;51.37;;;16.70;;
18651;SDS011;9455;54.302;10.124;2024-03-02T03:03:50;48.77;;;17.63;;
18651;SDS011;9455;54.302;10.124;2024-03-02T03:06:17;46.73;;;17.33;;
18651;SDS011;9455;54.302;10.124;2024-03-02T03:08:43;51.93;;;16.50;;
18651;SDS011;9455;54.302;10.124;2024-03-02T03:11:10;49.67;;;16.83;;
18651;SDS011;9455;54.302;10.124;2024-03-02T03:13:38;46.87;;;16.43;;
18651;SDS011;9455;54.302;10.124;2024-03-02T03:16:05;47.10;;;17.97;;
18651;SDS011;9455;54.302;10.124;2024-03-02T03:18:32;46.13;;;16.93;;
18651;SDS011;9455;54.302;10.124;2024-03-02T03:20:58;48.40;;;17.10;;
18651;SDS011;9455;54.302;10.124;2024-03-02T03:23:25;51.23;;;16.53;;
18651;SDS011;9455;54.302;10.124;2024-03-02T03:25:51;53.33;;;18.50;;
18651;SDS011;9455;54.302;10.124;2024-03-02T03:28:18;55.17;;;18.87;;
18651;SDS011;9455;54.302;10.124;2024-03-02T03:30:45;51.93;;;19.40;;
18651;SDS011;9455;54.302;10.124;2024-03-02T03:33:12;53.27;;;18.97;;
18651;SDS011;9455;54.302;10.124;2024-03-02T03:35:39;56.87;;;18.33;;
18651;SDS011;9455;54.302;10.124;2024-03-02T03:38:08;49.07;;;17.57;;
18651;SDS011;9455;54.302;10.124;2024-03-02T03:40:34;49.37;;;16.60;;
18651;SDS011;9455;54.302;10.124;2024-03-02T03:43:01;47.93;;;18.37;;
18651;SDS011;9455;54.302;10.124;2024-03-02T03:45:28;50.20;;;18.67;;
18651;SDS011;9455;54.302;10.124;2024-03-02T03:47:56;50.90;;;17.23;;
18651;SDS011;9455;54.302;10.124;2024-03-02T03:50:23;49.53;;;17.93;;
18651;SDS011;9455;54.302;10.124;2024-03-02T03:52:50;50.20;;;16.53;;
18651;SDS011;9455;54.302;10.124;2024-03-02T03:55:16;57.13;;;18.23;;
18651;SDS011;9455;54.302;10.124;2024-03-02T03:57:43;42.17;;;16.20;;
18651;SDS011;9455;54.302;10.124;2024-03-02T04:00:10;45.43;;;16.73;;
18651;SDS011;9455;54.302;10.124;2024-03-02T04:02:37;45.43;;;17.43;;
18651;SDS011;9455;54.302;10.124;2024-03-02T04:05:05;51.73;;;17.70;;
18651;SDS011;9455;54.302;10.124;2024-03-02T04:07:35;51.23;;;17.47;;
18651;SDS011;9455;54.302;10.124;2024-03-02T04:10:06;61.90;;;17.33;;
18651;SDS011;9455;54.302;10.124;2024-03-02T04:12:34;48.17;;;17.57;;
18651;SDS011;9455;54.302;10.124;2024-03-02T04:15:01;46.70;;;16.40;;
18651;SDS011;9455;54.302;10.124;2024-03-02T04:17:29;50.23;;;17.47;;
18651;SDS011;9455;54.302;10.124;2024-03-02T04:19:57;49.93;;;17.53;;
18651;SDS011;9455;54.302;10.124;2024-03-02T04:22:25;47.87;;;18.03;;
18651;SDS011;9455;54.302;10.124;2024-03-02T04:24:52;43.23;;;17.37;;
18651;SDS011;9455;54.302;10.124;2024-03-02T04:27:18;53.37;;;17.87;;
18651;SDS011;9455;54.302;10.124;2024-03-02T04:29:45;47.93;;;17.33;;
18651;SDS011;9455;54.302;10.124;2024-03-02T04:32:11;58.30;;;18.43;;
18651;SDS011;9455;54.302;10.124;2024-03-02T04:34:38;50.73;;;17.70;;
18651;SDS011;9455;54.302;10.124;2024-03-02T04:37:05;58.23;;;18.33;;
18651;SDS011;9455;54.302;10.124;2024-03-02T04:39:33;46.60;;;17.13;;
18651;SDS011;9455;54.302;10.124;2024-03-02T04:42:00;44.17;;;16.70;;
18651;SDS011;9455;54.302;10.124;2024-03-02T04:44:27;52.93;;;17.13;;
18651;SDS011;9455;54.302;10.124;2024-03-02T04:46:54;48.30;;;16.70;;
18651;SDS011;9455;54.302;10.124;2024-03-02T04:49:21;48.47;;;17.57;;
18651;SDS011;9455;54.302;10.124;2024-03-02T04:51:47;44.77;;;17.27;;
18651;SDS011;9455;54.302;10.124;2024-03-02T04:54:14;44.27;;;17.53;;
18651;SDS011;9455;54.302;10.124;2024-03-02T04:56:42;49.43;;;17.93;;
18651;SDS011;9455;54.302;10.124;2024-03-02T04:59:09;52.33;;;16.77;;
18651;SDS011;9455;54.302;10.124;2024-03-02T05:01:36;52.80;;;16.70;;
18651;SDS011;9455;54.302;10.124;2024-03-02T05:04:03;56.27;;;17.30;;
18651;SDS011;9455;54.302;10.124;2024-03-02T05:06:29;56.47;;;19.33;;
18651;SDS011;9455;54.302;10.124;2024-03-02T05:08:56;51.70;;;17.47;;
18651;SDS011;9455;54.302;10.124;2024-03-02T05:11:22;60.33;;;19.77;;
18651;SDS011;9455;54.302;10.124;2024-03-02T05:14:14;51.20;;;18.83;;
18651;SDS011;9455;54.302;10.124;2024-03-02T05:16:43;55.17;;;17.83;;
18651;SDS011;9455;54.302;10.124;2024-03-02T05:19:09;54.63;;;19.63;;
18651;SDS011;9455;54.302;10.124;2024-03-02T05:21:36;55.57;;;17.97;;
18651;SDS011;9455;54.302;10.124;2024-03-02T05:24:03;46.17;;;19.00;;
18651;SDS011;9455;54.302;10.124;2024-03-02T05:26:29;55.30;;;18.47;;
18651;SDS011;9455;54.302;10.124;2024-03-02T05:28:56;47.60;;;17.47;;
18651;SDS011;9455;54.302;10.124;2024-03-02T05:31:24;47.37;;;17.53;;
18651;SDS011;9455;54.302;10.124;2024-03-02T05:33:50;51.70;;;17.53;;
18651;SDS011;9455;54.302;10.124;2024-03-02T05:36:17;48.23;;;15.97;;
18651;SDS011;9455;54.302;10.124;2024-03-02T05:38:45;45.53;;;16.63;;
18651;SDS011;9455;54.302;10.124;2024-03-02T05:41:12;51.40;;;18.17;;
18651;SDS011;9455;54.302;10.124;2024-03-02T05:43:38;52.17;;;18.40;;
18651;SDS011;9455;54.302;10.124;2024-03-02T05:46:05;53.07;;;18.93;;
18651;SDS011;9455;54.302;10.124;2024-03-02T05:48:33;49.77;;;17.70;;
18651;SDS011;9455;54.302;10.124;2024-03-02T05:51:00;55.40;;;18.77;;
18651;SDS011;9455;54.302;10.124;2024-03-02T05:53:26;58.77;;;19.00;;
18651;SDS011;9455;54.302;10.124;2024-03-02T05:55:53;49.43;;;18.23;;
18651;SDS011;9455;54.302;10.124;2024-03-02T05:58:21;52.97;;;19.03;;
18651;SDS011;9455;54.302;10.124;2024-03-02T06:00:57;51.93;;;18.50;;
18651;SDS011;9455;54.302;10.124;2024-03-02T06:03:24;47.27;;;16.97;;
18651;SDS011;9455;54.302;10.124;2024-03-02T06:05:52;57.07;;;18.63;;
18651;SDS011;9455;54.302;10.124;2024-03-02T06:08:19;53.20;;;18.73;;
18651;SDS011;9455;54.302;10.124;2024-03-02T06:10:45;50.00;;;17.80;;
18651;SDS011;9455;54.302;10.124;2024-03-02T06:13:12;62.90;;;19.53;;
18651;SDS011;9455;54.302;10.124;2024-03-02T06:15:38;50.97;;;19.20;;
18651;SDS011;9455;54.302;10.124;2024-03-02T06:18:05;44.43;;;18.10;;
18651;SDS011;9455;54.302;10.124;2024-03-02T06:20:32;50.73;;;18.17;;
18651;SDS011;9455;54.302;10.124;2024-03-02T06:23:01;56.27;;;16.57;;
18651;SDS011;9455;54.302;10.124;2024-03-02T06:25:28;54.27;;;18.00;;
18651;SDS011;9455;54.302;10.124;2024-03-02T06:27:54;59.20;;;20.13;;
18651;SDS011;9455;54.302;10.124;2024-03-02T06:30:21;52.70;;;18.60;;
18651;SDS011;9455;54.302;10.124;2024-03-02T06:32:48;50.57;;;18.33;;
18651;SDS011;9455;54.302;10.124;2024-03-02T06:35:14;54.03;;;18.33;;
18651;SDS011;9455;54.302;10.124;2024-03-02T06:37:41;57.50;;;19.13;;
18651;SDS011;9455;54.302;10.124;2024-03-02T06:40:08;45.57;;;18.07;;
18651;SDS011;9455;54.302;10.124;2024-03-02T06:42:35;45.13;;;17.20;;
18651;SDS011;9455;54.302;10.124;2024-03-02T06:45:02;50.20;;;19.20;;
18651;SDS011;9455;54.302;10.124;2024-03-02T06:47:29;51.03;;;17.97;;
18651;SDS011;9455;54.302;10.124;2024-03-02T06:49:56;52.33;;;18.57;;
18651;SDS011;9455;54.302;10.124;2024-03-02T06:52:23;50.03;;;18.33;;
18651;SDS011;9455;54.302;10.124;2024-03-02T06:54:50;51.73;;;18.40;;
18651;SDS011;9455;54.302;10.124;2024-03-02T06:57:18;52.63;;;18.90;;
18651;SDS011;9455;54.302;10.124;2024-03-02T06:59:45;55.60;;;18.47;;
18651;SDS011;9455;54.302;10.124;2024-03-02T07:02:12;51.07;;;17.70;;
18651;SDS011;9455;54.302;10.124;2024-03-02T07:04:38;46.63;;;16.47;;
18651;SDS011;9455;54.302;10.124;2024-03-02T07:07:05;47.20;;;17.27;;
18651;SDS011;9455;54.302;10.124;2024-03-02T07:09:32;46.23;;;16.80;;
18651;SDS011;9455;54.302;10.124;2024-03-02T07:11:58;46.77;;;17.47;;
18651;SDS011;9455;54.302;10.124;2024-03-02T07:14:26;50.90;;;17.73;;
18651;SDS011;9455;54.302;10.124;2024-03-02T07:17:13;50.93;;;17.70;;
18651;SDS011;9455;54.302;10.124;2024-03-02T07:19:39;43.97;;;16.17;;
18651;SDS011;9455;54.302;10.124;2024-03-02T07:22:06;43.53;;;16.20;;
18651;SDS011;9455;54.302;10.124;2024-03-02T07:24:38;45.67;;;18.03;;
18651;SDS011;9455;54.302;10.124;2024-03-02T07:27:06;40.27;;;14.90;;
18651;SDS011;9455;54.302;10.124;2024-03-02T07:29:34;44.13;;;15.10;;
18651;SDS011;9455;54.302;10.124;2024-03-02T07:32:01;46.27;;;16.67;;
18651;SDS011;9455;54.302;10.124;2024-03-02T07:34:28;41.20;;;15.40;;
18651;SDS011;9455;54.302;10.124;2024-03-02T07:36:55;49.67;;;17.53;;
18651;SDS011;9455;54.302;10.124;2024-03-02T07:39:21;42.23;;;15.80;;
18651;SDS011;9455;54.302;10.124;2024-03-02T07:41:48;42.83;;;15.47;;
18651;SDS011;9455;54.302;10.124;2024-03-02T07:44:15;55.17;;;15.43;;
18651;SDS011;9455;54.302;10.124;2024-03-02T07:46:45;42.57;;;15.00;;
18651;SDS011;9455;54.302;10.124;2024-03-02T07:49:14;48.40;;;15.00;;
18651;SDS011;9455;54.302;10.124;2024-03-02T07:51:41;42.07;;;15.17;;
18651;SDS011;9455;54.302;10.124;2024-03-02T07:54:08;42.53;;;15.13;;
18651;SDS011;9455;54.302;10.124;2024-03-02T07:56:34;37.73;;;14.83;;
18651;SDS011;9455;54.302;10.124;2024-03-02T07:59:01;42.47;;;15.87;;
18651;SDS011;9455;54.302;10.124;2024-03-02T08:01:28;40.83;;;15.37;;
18651;SDS011;9455;54.302;10.124;2024-03-02T08:03:57;46.13;;;16.30;;
18651;SDS011;9455;54.302;10.124;2024-03-02T08:06:24;42.33;;;13.87;;
18651;SDS011;9455;54.302;10.124;2024-03-02T08:08:52;36.93;;;15.13;;
18651;SDS011;9455;54.302;10.124;2024-03-02T08:11:19;37.97;;;15.53;;
18651;SDS011;9455;54.302;10.124;2024-03-02T08:13:46;46.47;;;15.97;;
18651;SDS011;9455;54.302;10.124;2024-03-02T08:16:13;36.70;;;16.13;;
18651;SDS011;9455;54.302;10.124;2024-03-02T08:18:40;47.57;;;16.07;;
18651;SDS011;9455;54.302;10.124;2024-03-02T08:21:08;42.57;;;16.47;;
18651;SDS011;9455;54.302;10.124;2024-03-02T08:23:34;42.80;;;16.30;;
18651;SDS011;9455;54.302;10.124;2024-03-02T08:26:01;38.03;;;14.73;;
18651;SDS011;9455;54.302;10.124;2024-03-02T08:28:28;39.03;;;15.77;;
18651;SDS011;9455;54.302;10.124;2024-03-02T08:30:55;39.63;;;15.57;;
18651;SDS011;9455;54.302;10.124;2024-03-02T08:33:21;58.87;;;16.47;;
18651;SDS011;9455;54.302;10.124;2024-03-02T08:35:48;49.57;;;16.93;;
18651;SDS011;9455;54.302;10.124;2024-03-02T08:38:16;42.07;;;17.20;;
18651;SDS011;9455;54.302;10.124;2024-03-02T08:40:43;46.27;;;17.87;;
18651;SDS011;9455;54.302;10.124;2024-03-02T08:43:10;42.97;;;16.30;;
18651;SDS011;9455;54.302;10.124;2024-03-02T08:45:37;42.90;;;16.53;;
18651;SDS011;9455;54.302;10.124;2024-03-02T08:48:05;45.87;;;16.73;;
18651;SDS011;9455;54.302;10.124;2024-03-02T08:50:33;47.40;;;16.10;;
18651;SDS011;9455;54.302;10.124;2024-03-02T08:53:00;48.80;;;15.47;;
18651;SDS011;9455;54.302;10.124;2024-03-02T08:55:27;39.13;;;16.03;;
18651;SDS011;9455;54.302;10.124;2024-03-02T08:57:54;43.53;;;16.03;;
18651;SDS011;9455;54.302;10.124;2024-03-02T09:00:21;44.83;;;16.07;;
18651;SDS011;9455;54.302;10.124;2024-03-02T09:02:48;41.93;;;13.37;;
18651;SDS011;9455;54.302;10.124;2024-03-02T09:05:15;38.47;;;14.43;;
18651;SDS011;9455;54.302;10.124;2024-03-02T09:07:42;37.70;;;14.50;;
18651;SDS011;9455;54.302;10.124;2024-03-02T09:10:08;35.63;;;14.23;;
18651;SDS011;9455;54.302;10.124;2024-03-02T09:12:37;34.93;;;13.07;;
18651;SDS011;9455;54.302;10.124;2024-03-02T09:15:04;42.27;;;13.37;;
18651;SDS011;9455;54.302;10.124;2024-03-02T09:17:32;30.37;;;12.90;;
18651;SDS011;9455;54.302;10.124;2024-03-02T09:19:59;35.97;;;12.83;;
18651;SDS011;9455;54.302;10.124;2024-03-02T09:22:25;37.10;;;13.70;;
18651;SDS011;9455;54.302;10.124;2024-03-02T09:24:52;31.53;;;12.50;;
18651;SDS011;9455;54.302;10.124;2024-03-02T09:27:19;32.60;;;12.57;;
18651;SDS011;9455;54.302;10.124;2024-03-02T09:29:47;30.43;;;12.43;;
18651;SDS011;9455;54.302;10.124;2024-03-02T09:32:13;33.33;;;13.17;;
18651;SDS011;9455;54.302;10.124;2024-03-02T09:34:40;29.47;;;11.33;;
18651;SDS011;9455;54.302;10.124;2024-03-02T09:37:08;29.33;;;11.70;;
18651;SDS011;9455;54.302;10.124;2024-03-02T09:39:35;26.77;;;11.23;;
18651;SDS011;9455;54.302;10.124;2024-03-02T09:42:01;31.33;;;12.60;;
18651;SDS011;9455;54.302;10.124;2024-03-02T09:44:30;39.87;;;12.97;;
18651;SDS011;9455;54.302;10.124;2024-03-02T09:46:58;39.50;;;11.30;;
18651;SDS011;9455;54.302;10.124;2024-03-02T09:49:25;34.10;;;11.70;;
18651;SDS011;9455;54.302;10.124;2024-03-02T09:51:52;24.47;;;10.33;;
18651;SDS011;9455;54.302;10.124;2024-03-02T09:54:19;28.23;;;10.80;;
18651;SDS011;9455;54.302;10.124;2024-03-02T09:56:46;31.03;;;11.40;;
18651;SDS011;9455;54.302;10.124;2024-03-02T09:59:12;33.17;;;10.87;;
18651;SDS011;9455;54.302;10.124;2024-03-02T10:01:54;30.77;;;12.00;;
18651;SDS011;9455;54.302;10.124;2024-03-02T10:04:23;26.87;;;10.40;;
18651;SDS011;9455;54.302;10.124;2024-03-02T10:06:51;37.37;;;11.23;;
18651;SDS011;9455;54.302;10.124;2024-03-02T10:09:26;23.77;;;11.10;;
18651;SDS011;9455;54.302;10.124;2024-03-02T10:12:01;26.27;;;11.13;;
18651;SDS011;9455;54.302;10.124;2024-03-02T10:14:30;30.50;;;11.00;;
18651;SDS011;9455;54.302;10.124;2024-03-02T10:17:01;25.93;;;11.23;;
18651;SDS011;9455;54.302;10.124;2024-03-02T10:19:30;26.00;;;11.03;;
18651;SDS011;9455;54.302;10.124;2024-03-02T10:21:58;30.80;;;11.67;;
18651;SDS011;9455;54.302;10.124;2024-03-02T10:24:25;26.77;;;10.80;;
18651;SDS011;9455;54.302;10.124;2024-03-02T10:26:52;27.53;;;10.70;;
18651;SDS011;9455;54.302;10.124;2024-03-02T10:29:19;29.80;;;11.67;;
18651;SDS011;9455;54.302;10.124;2024-03-02T10:31:46;35.00;;;11.27;;
18651;SDS011;9455;54.302;10.124;2024-03-02T10:34:13;22.33;;;11.00;;
18651;SDS011;9455;54.302;10.124;2024-03-02T10:36:42;26.57;;;10.83;;
18651;SDS011;9455;54.302;10.124;2024-03-02T10:39:10;20.77;;;10.20;;
18651;SDS011;9455;54.302;10.124;2024-03-02T10:41:39;26.43;;;11.27;;
18651;SDS011;9455;54.302;10.124;2024-03-02T10:44:06;25.90;;;10.00;;
18651;SDS011;9455;54.302;10.124;2024-03-02T10:46:34;25.53;;;10.87;;
18651;SDS011;9455;54.302;10.124;2024-03-02T10:49:03;27.20;;;10.60;;
18651;SDS011;9455;54.302;10.124;2024-03-02T10:51:30;23.57;;;10.17;;
18651;SDS011;9455;54.302;10.124;2024-03-02T10:53:59;24.87;;;10.30;;
18651;SDS011;9455;54.302;10.124;2024-03-02T10:56:27;30.97;;;11.33;;
18651;SDS011;9455;54.302;10.124;2024-03-02T10:58:56;35.90;;;10.60;;
18651;SDS011;9455;54.302;10.124;2024-03-02T11:01:28;30.40;;;11.57;;
18651;SDS011;9455;54.302;10.124;2024-03-02T11:03:55;26.23;;;10.93;;
18651;SDS011;9455;54.302;10.124;2024-03-02T11:06:23;23.37;;;10.53;;
18651;SDS011;9455;54.302;10.124;2024-03-02T11:08:52;30.67;;;11.70;;
18651;SDS011;9455;54.302;10.124;2024-03-02T11:11:27;30.63;;;11.47;;
18651;SDS011;9455;54.302;10.124;2024-03-02T11:13:56;26.50;;;10.70;;
18651;SDS011;9455;54.302;10.124;2024-03-02T11:16:33;28.90;;;10.57;;
18651;SDS011;9455;54.302;10.124;2024-03-02T11:19:01;26.00;;;10.40;;
18651;SDS011;9455;54.302;10.124;2024-03-02T11:21:30;24.77;;;10.90;;
18651;SDS011;9455;54.302;10.124;2024-03-02T11:23:58;21.67;;;9.67;;
18651;SDS011;9455;54.302;10.124;2024-03-02T11:26:28;25.97;;;10.17;;
18651;SDS011;9455;54.302;10.124;2024-03-02T11:28:55;26.50;;;10.27;;
18651;SDS011;9455;54.302;10.124;2024-03-02T11:31:29;30.70;;;10.33;;
18651;SDS011;9455;54.302;10.124;2024-03-02T11:34:28;24.77;;;9.37;;
18651;SDS011;9455;54.302;10.124;2024-03-02T11:36:55;24.40;;;10.03;;
18651;SDS011;9455;54.302;10.124;2024-03-02T11:39:22;23.17;;;9.60;;
18651;SDS011;9455;54.302;10.124;2024-03-02T11:41:50;27.10;;;10.30;;
18651;SDS011;9455;54.302;10.124;2024-03-02T11:44:17;24.50;;;10.93;;
18651;SDS011;9455;54.302;10.124;2024-03-02T11:46:44;26.57;;;10.80;;
18651;SDS011;9455;54.302;10.124;2024-03-02T11:49:13;26.77;;;9.57;;
18651;SDS011;9455;54.302;10.124;2024-03-02T11:51:40;17.73;;;8.90;;
18651;SDS011;9455;54.302;10.124;2024-03-02T11:54:19;19.90;;;9.83;;
18651;SDS011;9455;54.302;10.124;2024-03-02T11:56:47;26.97;;;10.73;;
18651;SDS011;9455;54.302;10.124;2024-03-02T11:59:15;22.60;;;9.80;;
18651;SDS011;9455;54.302;10.124;2024-03-02T12:01:41;20.37;;;9.37;;
18651;SDS011;9455;54.302;10.124;2024-03-02T12:04:09;36.37;;;10.47;;
18651;SDS011;9455;54.302;10.124;2024-03-02T12:06:36;22.57;;;8.83;;
18651;SDS011;9455;54.302;10.124;2024-03-02T12:09:04;18.27;;;8.90;;
18651;SDS011;9455;54.302;10.124;2024-03-02T12:11:36;27.97;;;11.30;;
18651;SDS011;9455;54.302;10.124;2024-03-02T12:14:03;27.43;;;9.87;;
18651;SDS011;9455;54.302;10.124;2024-03-02T12:16:31;39.43;;;10.53;;
18651;SDS011;9455;54.302;10.124;2024-03-02T12:18:57;26.97;;;9.37;;
18651;SDS011;9455;54.302;10.124;2024-03-02T12:21:24;28.93;;;10.53;;
18651;SDS011;9455;54.302;10.124;2024-03-02T12:23:51;30.40;;;10.77;;
18651;SDS011;9455;54.302;10.124;2024-03-02T12:26:17;24.47;;;9.30;;
18651;SDS011;9455;54.302;10.124;2024-03-02T12:28:44;23.60;;;9.40;;
18651;SDS011;9455;54.302;10.124;2024-03-02T12:31:13;25.97;;;9.23;;
18651;SDS011;9455;54.302;10.124;2024-03-02T12:33:41;47.60;;;11.13;;
18651;SDS011;9455;54.302;10.124;2024-03-02T12:36:09;23.23;;;9.17;;
18651;SDS011;9455;54.302;10.124;2024-03-02T12:38:37;25.90;;;9.50;;
18651;SDS011;9455;54.302;10.124;2024-03-02T12:41:03;22.83;;;9.20;;
18651;SDS011;9455;54.302;10.124;2024-03-02T12:43:30;25.43;;;9.53;;
18651;SDS011;9455;54.302;10.124;2024-03-02T12:45:57;20.77;;;9.37;;
18651;SDS011;9455;54.302;10.124;2024-03-02T12:48:24;25.93;;;9.97;;
18651;SDS011;9455;54.302;10.124;2024-03-02T12:50:52;23.63;;;9.83;;
18651;SDS011;9455;54.302;10.124;2024-03-02T12:53:20;20.60;;;10.00;;
18651;SDS011;9455;54.302;10.124;2024-03-02T12:55:47;28.50;;;10.40;;
18651;SDS011;9455;54.302;10.124;2024-03-02T12:58:18;26.37;;;10.97;;
18651;SDS011;9455;54.302;10.124;2024-03-02T13:00:46;25.93;;;10.50;;
18651;SDS011;9455;54.302;10.124;2024-03-02T13:03:12;23.70;;;10.07;;
18651;SDS011;9455;54.302;10.124;2024-03-02T13:05:40;27.57;;;9.87;;
18651;SDS011;9455;54.302;10.124;2024-03-02T13:08:09;33.47;;;11.87;;
18651;SDS011;9455;54.302;10.124;2024-03-02T13:10:36;25.50;;;11.47;;
18651;SDS011;9455;54.302;10.124;2024-03-02T13:13:04;25.90;;;11.03;;
18651;SDS011;9455;54.302;10.124;2024-03-02T13:15:32;29.83;;;12.20;;
18651;SDS011;9455;54.302;10.124;2024-03-02T13:18:00;32.17;;;12.80;;
18651;SDS011;9455;54.302;10.124;2024-03-02T13:20:29;35.23;;;12.53;;
18651;SDS011;9455;54.302;10.124;2024-03-02T13:22:57;25.90;;;11.10;;
18651;SDS011;9455;54.302;10.124;2024-03-02T13:25:25;28.73;;;12.17;;
18651;SDS011;9455;54.302;10.124;2024-03-02T13:27:52;29.83;;;11.77;;
18651;SDS011;9455;54.302;10.124;2024-03-02T13:30:18;24.67;;;10.30;;
18651;SDS011;9455;54.302;10.124;2024-03-02T13:32:45;27.23;;;11.57;;
18651;SDS011;9455;54.302;10.124;2024-03-02T13:35:12;27.03;;;10.50;;
18651;SDS011;9455;54.302;10.124;2024-03-02T13:37:38;32.60;;;11.13;;
18651;SDS011;9455;54.302;10.124;2024-03-02T13:40:05;21.30;;;10.10;;
18651;SDS011;9455;54.302;10.124;2024-03-02T13:42:39;28.20;;;10.73;;
18651;SDS011;9455;54.302;10.124;2024-03-02T13:45:06;24.37;;;10.20;;
18651;SDS011;9455;54.302;10.124;2024-03-02T13:47:33;27.07;;;10.33;;
18651;SDS011;9455;54.302;10.124;2024-03-02T13:49:59;24.23;;;9.50;;
18651;SDS011;9455;54.302;10.124;2024-03-02T13:52:27;28.30;;;10.40;;
18651;SDS011;9455;54.302;10.124;2024-03-02T13:54:55;26.33;;;10.47;;
18651;SDS011;9455;54.302;10.124;2024-03-02T13:57:21;20.40;;;8.90;;
18651;SDS011;9455;54.302;10.124;2024-03-02T13:59:50;34.43;;;9.87;;
18651;SDS011;9455;54.302;10.124;2024-03-02T14:02:17;21.87;;;10.03;;
18651;SDS011;9455;54.302;10.124;2024-03-02T14:04:44;26.57;;;10.13;;
18651;SDS011;9455;54.302;10.124;2024-03-02T14:07:10;41.30;;;11.67;;
18651;SDS011;9455;54.302;10.124;2024-03-02T14:09:37;26.10;;;10.73;;
18651;SDS011;9455;54.302;10.124;2024-03-02T14:12:04;26.60;;;10.60;;
18651;SDS011;9455;54.302;10.124;2024-03-02T14:14:31;27.63;;;11.37;;
18651;SDS011;9455;54.302;10.124;2024-03-02T14:16:59;33.03;;;11.20;;
18651;SDS011;9455;54.302;10.124;2024-03-02T14:19:29;25.63;;;10.83;;
18651;SDS011;9455;54.302;10.124;2024-03-02T14:21:56;27.50;;;10.67;;
18651;SDS011;9455;54.302;10.124;2024-03-02T14:24:22;22.60;;;9.03;;
18651;SDS011;9455;54.302;10.124;2024-03-02T14:26:50;26.40;;;9.97;;